Main page
METAR-TAF:

METAR-TAF

Airports :

Upington Airport

Upington, South Africa

latitude: 28-24S, longitude: 021-16E, elevation: 839 m

Current weather observation

The report was made 30 minutes ago, at 07:00 UTC
Wind 5 kt from the North/Northeast
Temperature 32°C
Humidity 28%
Pressure 1017 hPa
Visibility 10 km or more
no clouds below 1500 m and no cumulonimbus

METAR: FAUP 020700Z 02005KT CAVOK 32/11 Q1017 NOSIG

Time: 09:30 (07:30 UTC)

Forecast

The report was made 3 hours and 30 minutes ago, at 04:00 UTC
Forecast valid from 02 at 06 UTC to 03 at 06 UTC
Wind 8 kt from the North
Visibility 10 km or more
no clouds below 1500 m and no cumulonimbus
Probability 30% :
Temporary
from 02 at 18 UTC to 02 at 23 UTC
Few clouds at a height of 6000 ft, Cumulonimbus.
thunderstorm, light rain,

TAF: FAUP 020400Z 0206/0306 01008KT CAVOK TX38/0213Z TN20/0304Z PROB30 TEMPO 0218/0223 -TSRA FEW060CB

Weather observations and forecasts of more than 4000 airports (METAR and TAF reports).

The available stations are represented by yellow and red dots on the map.

Hover mouse over dot to see the name of the station.

Then click to see weather observations and forecasts.

To change the map : click on the green buttons with a black cross to zoom in, on the green button with a dash to zoom out, or on the green arrows for adjacent maps.


METAR-TAF: